sensor_id;sensor_type;location;lat;lon;timestamp;pressure;altitude;pressure_sealevel;temperature;humidity
68807;BME280;55800;54.272;18.558;2022-11-15T00:00:31;101228.53;;;7.45;75.84
68807;BME280;55800;54.272;18.558;2022-11-15T00:03:21;101230.34;;;7.44;75.68
68807;BME280;55800;54.272;18.558;2022-11-15T00:06:10;101224.09;;;7.45;75.80
68807;BME280;55800;54.272;18.558;2022-11-15T00:08:58;101222.34;;;7.44;75.85
68807;BME280;55800;54.272;18.558;2022-11-15T00:11:47;101216.09;;;7.45;75.65
68807;BME280;55800;54.272;18.558;2022-11-15T00:14:36;101217.00;;;7.46;75.79
68807;BME280;55800;54.272;18.558;2022-11-15T00:17:25;101205.47;;;7.45;75.82
68807;BME280;55800;54.272;18.558;2022-11-15T00:20:12;101208.13;;;7.45;75.76
68807;BME280;55800;54.272;18.558;2022-11-15T00:23:02;101203.69;;;7.46;75.71
68807;BME280;55800;54.272;18.558;2022-11-15T00:25:56;101202.81;;;7.45;75.76
68807;BME280;55800;54.272;18.558;2022-11-15T00:28:45;101204.59;;;7.45;75.71
68807;BME280;55800;54.272;18.558;2022-11-15T00:31:34;101206.41;;;7.44;75.78
68807;BME280;55800;54.272;18.558;2022-11-15T00:34:22;101201.94;;;7.45;75.66
68807;BME280;55800;54.272;18.558;2022-11-15T00:37:09;101215.25;;;7.43;75.85
68807;BME280;55800;54.272;18.558;2022-11-15T00:39:57;101204.63;;;7.43;75.80
68807;BME280;55800;54.272;18.558;2022-11-15T00:42:45;101204.63;;;7.43;75.77
68807;BME280;55800;54.272;18.558;2022-11-15T00:45:33;101204.63;;;7.43;75.77
68807;BME280;55800;54.272;18.558;2022-11-15T00:48:22;101203.78;;;7.41;75.58
68807;BME280;55800;54.272;18.558;2022-11-15T00:51:11;101198.50;;;7.40;75.61
68807;BME280;55800;54.272;18.558;2022-11-15T00:53:59;101202.94;;;7.39;75.70
68807;BME280;55800;54.272;18.558;2022-11-15T00:56:46;101185.22;;;7.38;75.68
68807;BME280;55800;54.272;18.558;2022-11-15T00:59:34;101189.69;;;7.36;75.59
68807;BME280;55800;54.272;18.558;2022-11-15T01:02:22;101187.03;;;7.36;75.71
68807;BME280;55800;54.272;18.558;2022-11-15T01:05:12;101187.09;;;7.33;75.60
68807;BME280;55800;54.272;18.558;2022-11-15T01:08:00;101188.91;;;7.31;75.63
68807;BME280;55800;54.272;18.558;2022-11-15T01:10:47;101181.81;;;7.30;75.67
68807;BME280;55800;54.272;18.558;2022-11-15T01:13:36;101176.59;;;7.27;75.74
68807;BME280;55800;54.272;18.558;2022-11-15T01:16:23;101173.94;;;7.26;75.71
68807;BME280;55800;54.272;18.558;2022-11-15T01:19:11;101178.41;;;7.25;75.70
68807;BME280;55800;54.272;18.558;2022-11-15T01:22:00;101172.19;;;7.23;75.70
68807;BME280;55800;54.272;18.558;2022-11-15T01:24:49;101166.88;;;7.23;75.61
68807;BME280;55800;54.272;18.558;2022-11-15T01:27:37;101151.81;;;7.24;75.78
68807;BME280;55800;54.272;18.558;2022-11-15T01:30:25;101145.59;;;7.23;75.69
68807;BME280;55800;54.272;18.558;2022-11-15T01:33:12;101137.63;;;7.23;75.66
68807;BME280;55800;54.272;18.558;2022-11-15T01:36:05;101132.31;;;7.23;75.68
68807;BME280;55800;54.272;18.558;2022-11-15T01:38:55;101137.63;;;7.23;75.75
68807;BME280;55800;54.272;18.558;2022-11-15T01:41:44;101128.81;;;7.21;75.76
68807;BME280;55800;54.272;18.558;2022-11-15T01:44:41;101125.31;;;7.21;75.76
68807;BME280;55800;54.272;18.558;2022-11-15T01:47:32;101127.06;;;7.20;75.80
68807;BME280;55800;54.272;18.558;2022-11-15T01:50:23;101114.66;;;7.19;75.73
68807;BME280;55800;54.272;18.558;2022-11-15T01:53:12;101108.47;;;7.20;75.75
68807;BME280;55800;54.272;18.558;2022-11-15T01:56:04;101109.34;;;7.19;75.67
68807;BME280;55800;54.272;18.558;2022-11-15T01:58:55;101104.03;;;7.19;75.70
68807;BME280;55800;54.272;18.558;2022-11-15T02:01:43;101109.34;;;7.19;75.76
68807;BME280;55800;54.272;18.558;2022-11-15T02:04:33;101109.34;;;7.19;75.70
68807;BME280;55800;54.272;18.558;2022-11-15T02:07:22;101102.34;;;7.17;75.67
68807;BME280;55800;54.272;18.558;2022-11-15T02:10:12;101099.69;;;7.17;75.78
68807;BME280;55800;54.272;18.558;2022-11-15T02:13:02;101089.91;;;7.17;75.76
68807;BME280;55800;54.272;18.558;2022-11-15T02:15:55;101081.06;;;7.15;75.53
68807;BME280;55800;54.272;18.558;2022-11-15T02:18:52;101087.31;;;7.14;75.68
68807;BME280;55800;54.272;18.558;2022-11-15T02:21:46;101082.94;;;7.12;75.68
68807;BME280;55800;54.272;18.558;2022-11-15T02:31:19;101069.69;;;7.08;75.64
68807;BME280;55800;54.272;18.558;2022-11-15T02:34:20;101068.00;;;7.06;75.66
68807;BME280;55800;54.272;18.558;2022-11-15T02:37:15;101069.81;;;7.04;75.68
68807;BME280;55800;54.272;18.558;2022-11-15T02:40:10;101063.63;;;7.02;75.67
68807;BME280;55800;54.272;18.558;2022-11-15T02:43:04;101070.75;;;7.00;75.56
68807;BME280;55800;54.272;18.558;2022-11-15T02:46:17;101068.09;;;7.00;75.69
68807;BME280;55800;54.272;18.558;2022-11-15T02:49:07;101062.81;;;6.98;75.74
68807;BME280;55800;54.272;18.558;2022-11-15T02:51:55;101063.72;;;6.97;75.68
68807;BME280;55800;54.272;18.558;2022-11-15T02:54:52;101054.88;;;6.97;75.57
68807;BME280;55800;54.272;18.558;2022-11-15T02:57:52;101048.72;;;6.95;75.82
68807;BME280;55800;54.272;18.558;2022-11-15T03:00:46;101053.19;;;6.93;75.74
68807;BME280;55800;54.272;18.558;2022-11-15T03:03:49;101055.84;;;6.91;75.53
68807;BME280;55800;54.272;18.558;2022-11-15T03:06:45;101042.66;;;6.88;75.46
68807;BME280;55800;54.272;18.558;2022-11-15T03:09:42;101044.41;;;6.88;75.56
68807;BME280;55800;54.272;18.558;2022-11-15T03:12:38;101038.22;;;6.87;75.69
68807;BME280;55800;54.272;18.558;2022-11-15T03:15:33;101044.41;;;6.88;75.74
68807;BME280;55800;54.272;18.558;2022-11-15T03:18:30;101032.06;;;6.87;75.73
68807;BME280;55800;54.272;18.558;2022-11-15T03:21:21;101026.75;;;6.87;75.61
68807;BME280;55800;54.272;18.558;2022-11-15T03:24:11;101027.63;;;6.86;75.75
68807;BME280;55800;54.272;18.558;2022-11-15T03:27:01;101024.97;;;6.86;75.69
68807;BME280;55800;54.272;18.558;2022-11-15T03:29:50;101030.28;;;6.86;75.86
68807;BME280;55800;54.272;18.558;2022-11-15T03:33:00;101037.38;;;6.85;75.89
68807;BME280;55800;54.272;18.558;2022-11-15T03:35:50;101025.03;;;6.83;75.67
68807;BME280;55800;54.272;18.558;2022-11-15T03:38:41;101025.09;;;6.80;75.64
68807;BME280;55800;54.272;18.558;2022-11-15T03:41:35;101029.53;;;6.79;75.76
68807;BME280;55800;54.272;18.558;2022-11-15T03:44:41;101024.22;;;6.79;75.79
68807;BME280;55800;54.272;18.558;2022-11-15T03:47:34;101020.72;;;6.77;75.63
68807;BME280;55800;54.272;18.558;2022-11-15T03:50:24;101018.06;;;6.77;75.73
68807;BME280;55800;54.272;18.558;2022-11-15T03:53:12;101013.66;;;6.76;75.72
68807;BME280;55800;54.272;18.558;2022-11-15T03:56:01;101014.56;;;6.75;75.66
68807;BME280;55800;54.272;18.558;2022-11-15T03:58:49;101005.72;;;6.75;75.76
68807;BME280;55800;54.272;18.558;2022-11-15T04:01:38;101007.47;;;6.76;75.83
68807;BME280;55800;54.272;18.558;2022-11-15T04:04:26;101014.56;;;6.75;75.74
68807;BME280;55800;54.272;18.558;2022-11-15T04:07:13;101011.03;;;6.75;75.70
68807;BME280;55800;54.272;18.558;2022-11-15T04:10:01;101017.22;;;6.75;75.77
68807;BME280;55800;54.272;18.558;2022-11-15T04:12:51;101013.72;;;6.73;75.69
68807;BME280;55800;54.272;18.558;2022-11-15T04:15:38;101006.63;;;6.72;75.67
68807;BME280;55800;54.272;18.558;2022-11-15T04:18:26;101005.78;;;6.72;75.69
68807;BME280;55800;54.272;18.558;2022-11-15T04:21:14;101004.88;;;6.73;75.64
68807;BME280;55800;54.272;18.558;2022-11-15T04:24:19;101004.91;;;6.71;75.82
68807;BME280;55800;54.272;18.558;2022-11-15T04:27:07;101009.34;;;6.71;75.75
68807;BME280;55800;54.272;18.558;2022-11-15T04:29:57;101004.03;;;6.71;75.88
68807;BME280;55800;54.272;18.558;2022-11-15T04:32:45;101001.31;;;6.72;75.81
68807;BME280;55800;54.272;18.558;2022-11-15T04:35:34;101010.19;;;6.73;75.76
68807;BME280;55800;54.272;18.558;2022-11-15T04:38:22;101000.47;;;6.72;75.78
68807;BME280;55800;54.272;18.558;2022-11-15T04:41:10;101007.53;;;6.73;75.61
68807;BME280;55800;54.272;18.558;2022-11-15T04:43:58;101011.94;;;6.72;75.77
68807;BME280;55800;54.272;18.558;2022-11-15T04:46:47;101003.09;;;6.73;75.89
68807;BME280;55800;54.272;18.558;2022-11-15T04:49:35;100999.56;;;6.73;75.87
68807;BME280;55800;54.272;18.558;2022-11-15T04:52:23;100996.91;;;6.73;75.75
68807;BME280;55800;54.272;18.558;2022-11-15T04:55:11;100994.22;;;6.73;75.71
68807;BME280;55800;54.272;18.558;2022-11-15T04:57:59;100992.47;;;6.73;75.75
68807;BME280;55800;54.272;18.558;2022-11-15T05:00:48;100993.34;;;6.74;75.76
68807;BME280;55800;54.272;18.558;2022-11-15T05:03:36;100989.81;;;6.73;75.81
68807;BME280;55800;54.272;18.558;2022-11-15T05:06:41;100984.50;;;6.73;75.77
68807;BME280;55800;54.272;18.558;2022-11-15T05:09:29;100976.53;;;6.73;75.86
68807;BME280;55800;54.272;18.558;2022-11-15T05:12:17;100983.59;;;6.74;75.76
68807;BME280;55800;54.272;18.558;2022-11-15T05:15:05;100974.75;;;6.74;75.78
68807;BME280;55800;54.272;18.558;2022-11-15T05:17:58;100979.13;;;6.75;75.86
68807;BME280;55800;54.272;18.558;2022-11-15T05:20:47;100980.06;;;6.74;75.84
68807;BME280;55800;54.272;18.558;2022-11-15T05:23:36;100975.63;;;6.73;75.90
68807;BME280;55800;54.272;18.558;2022-11-15T05:26:24;100980.94;;;6.73;75.70
68807;BME280;55800;54.272;18.558;2022-11-15T05:29:12;100981.88;;;6.72;75.65
68807;BME280;55800;54.272;18.558;2022-11-15T05:32:00;100989.84;;;6.72;75.88
68807;BME280;55800;54.272;18.558;2022-11-15T05:34:48;100984.53;;;6.70;75.69
68807;BME280;55800;54.272;18.558;2022-11-15T05:37:37;100989.84;;;6.70;75.81
68807;BME280;55800;54.272;18.558;2022-11-15T05:40:26;100987.22;;;6.69;75.73
68807;BME280;55800;54.272;18.558;2022-11-15T05:43:13;100984.56;;;6.69;75.83
68807;BME280;55800;54.272;18.558;2022-11-15T05:46:02;100986.34;;;6.68;75.72
68807;BME280;55800;54.272;18.558;2022-11-15T05:48:51;100982.84;;;6.68;75.80
68807;BME280;55800;54.272;18.558;2022-11-15T05:51:41;100993.53;;;6.65;75.80
68807;BME280;55800;54.272;18.558;2022-11-15T05:54:33;100984.72;;;6.63;75.73
68807;BME280;55800;54.272;18.558;2022-11-15T05:57:23;100990.06;;;6.60;75.70
68807;BME280;55800;54.272;18.558;2022-11-15T06:00:12;100988.38;;;6.57;75.80
68807;BME280;55800;54.272;18.558;2022-11-15T06:03:00;100981.34;;;6.55;75.60
68807;BME280;55800;54.272;18.558;2022-11-15T06:05:48;100986.69;;;6.52;75.75
68807;BME280;55800;54.272;18.558;2022-11-15T06:08:36;100991.13;;;6.51;75.63
68807;BME280;55800;54.272;18.558;2022-11-15T06:11:25;100984.97;;;6.49;75.84
68807;BME280;55800;54.272;18.558;2022-11-15T06:14:13;100993.81;;;6.50;75.71
68807;BME280;55800;54.272;18.558;2022-11-15T06:17:01;100996.50;;;6.48;75.84
68807;BME280;55800;54.272;18.558;2022-11-15T06:19:56;100992.97;;;6.48;75.71
68807;BME280;55800;54.272;18.558;2022-11-15T06:22:44;100991.19;;;6.48;75.75
68807;BME280;55800;54.272;18.558;2022-11-15T06:25:32;100995.63;;;6.48;75.83
68807;BME280;55800;54.272;18.558;2022-11-15T06:28:21;100982.38;;;6.46;75.78
68807;BME280;55800;54.272;18.558;2022-11-15T06:31:10;100981.47;;;6.47;75.74
68807;BME280;55800;54.272;18.558;2022-11-15T06:33:58;100986.78;;;6.47;75.75
68807;BME280;55800;54.272;18.558;2022-11-15T06:36:46;100983.28;;;6.47;75.79
68807;BME280;55800;54.272;18.558;2022-11-15T06:39:34;100988.53;;;6.48;76.09
68807;BME280;55800;54.272;18.558;2022-11-15T06:42:22;100985.00;;;6.48;75.88
68807;BME280;55800;54.272;18.558;2022-11-15T06:45:12;100985.94;;;6.47;75.95
68807;BME280;55800;54.272;18.558;2022-11-15T06:48:00;100981.50;;;6.46;75.75
68807;BME280;55800;54.272;18.558;2022-11-15T06:50:51;100989.50;;;6.44;75.79
68807;BME280;55800;54.272;18.558;2022-11-15T06:53:39;100991.28;;;6.44;75.88
68807;BME280;55800;54.272;18.558;2022-11-15T06:56:27;100992.19;;;6.43;75.75
68807;BME280;55800;54.272;18.558;2022-11-15T06:59:15;100994.81;;;6.43;75.94
68807;BME280;55800;54.272;18.558;2022-11-15T07:02:04;100981.56;;;6.43;75.89
68807;BME280;55800;54.272;18.558;2022-11-15T07:04:52;100992.22;;;6.41;75.77
68807;BME280;55800;54.272;18.558;2022-11-15T07:07:40;100989.56;;;6.41;75.85
68807;BME280;55800;54.272;18.558;2022-11-15T07:10:29;100984.25;;;6.41;75.84
68807;BME280;55800;54.272;18.558;2022-11-15T07:13:17;100979.81;;;6.42;75.93
68807;BME280;55800;54.272;18.558;2022-11-15T07:16:07;100990.44;;;6.42;75.93
68807;BME280;55800;54.272;18.558;2022-11-15T07:18:56;100990.44;;;6.42;76.02
68807;BME280;55800;54.272;18.558;2022-11-15T07:21:44;101001.03;;;6.43;75.92
68807;BME280;55800;54.272;18.558;2022-11-15T07:24:33;101000.13;;;6.43;75.92
68807;BME280;55800;54.272;18.558;2022-11-15T07:27:21;100993.06;;;6.45;75.93
68807;BME280;55800;54.272;18.558;2022-11-15T07:30:09;100993.00;;;6.46;75.92
68807;BME280;55800;54.272;18.558;2022-11-15T07:33:01;100980.63;;;6.47;76.07
68807;BME280;55800;54.272;18.558;2022-11-15T07:35:50;100998.25;;;6.49;76.03
68807;BME280;55800;54.272;18.558;2022-11-15T07:38:38;100995.59;;;6.51;75.92
68807;BME280;55800;54.272;18.558;2022-11-15T07:41:28;100992.88;;;6.52;75.93
68807;BME280;55800;54.272;18.558;2022-11-15T07:44:16;100978.69;;;6.53;76.06
68807;BME280;55800;54.272;18.558;2022-11-15T07:47:04;100984.88;;;6.55;76.16
68807;BME280;55800;54.272;18.558;2022-11-15T07:49:53;100987.50;;;6.57;76.05
68807;BME280;55800;54.272;18.558;2022-11-15T07:52:42;100992.72;;;6.60;76.06
68807;BME280;55800;54.272;18.558;2022-11-15T07:55:30;100992.72;;;6.61;76.03
68807;BME280;55800;54.272;18.558;2022-11-15T07:58:18;100988.25;;;6.63;76.06
68807;BME280;55800;54.272;18.558;2022-11-15T08:01:08;100990.81;;;6.66;76.07
68807;BME280;55800;54.272;18.558;2022-11-15T08:03:57;100989.09;;;6.65;76.08
68807;BME280;55800;54.272;18.558;2022-11-15T08:06:44;100983.69;;;6.68;75.96
68807;BME280;55800;54.272;18.558;2022-11-15T08:09:34;100986.34;;;6.70;76.07
68807;BME280;55800;54.272;18.558;2022-11-15T08:12:22;100988.06;;;6.71;76.04
68807;BME280;55800;54.272;18.558;2022-11-15T08:15:10;100991.56;;;6.73;76.29
68807;BME280;55800;54.272;18.558;2022-11-15T08:18:03;100993.34;;;6.74;76.06
68807;BME280;55800;54.272;18.558;2022-11-15T08:20:51;100999.53;;;6.74;76.20
68807;BME280;55800;54.272;18.558;2022-11-15T08:23:39;101002.16;;;6.76;75.99
68807;BME280;55800;54.272;18.558;2022-11-15T08:26:28;100990.59;;;6.77;76.20
68807;BME280;55800;54.272;18.558;2022-11-15T08:29:17;100993.25;;;6.77;76.25
68807;BME280;55800;54.272;18.558;2022-11-15T08:32:05;100995.91;;;6.78;76.12
68807;BME280;55800;54.272;18.558;2022-11-15T08:34:53;100995.03;;;6.78;76.00
68807;BME280;55800;54.272;18.558;2022-11-15T08:37:41;100992.38;;;6.78;76.00
68807;BME280;55800;54.272;18.558;2022-11-15T08:40:29;100995.03;;;6.78;76.12
68807;BME280;55800;54.272;18.558;2022-11-15T08:43:18;100992.34;;;6.79;76.15
68807;BME280;55800;54.272;18.558;2022-11-15T08:46:07;100996.75;;;6.79;75.99
68807;BME280;55800;54.272;18.558;2022-11-15T08:48:56;100991.44;;;6.79;76.09
68807;BME280;55800;54.272;18.558;2022-11-15T08:51:44;100993.22;;;6.80;76.00
68807;BME280;55800;54.272;18.558;2022-11-15T08:54:32;100987.91;;;6.80;76.01
68807;BME280;55800;54.272;18.558;2022-11-15T08:57:20;100991.44;;;6.80;76.06
68807;BME280;55800;54.272;18.558;2022-11-15T09:00:11;100996.72;;;6.82;76.09
68807;BME280;55800;54.272;18.558;2022-11-15T09:02:59;100981.66;;;6.81;76.05
68807;BME280;55800;54.272;18.558;2022-11-15T09:05:47;100984.31;;;6.81;75.95
68807;BME280;55800;54.272;18.558;2022-11-15T09:08:35;100976.34;;;6.81;75.94
68807;BME280;55800;54.272;18.558;2022-11-15T09:11:33;100985.19;;;6.81;76.09
68807;BME280;55800;54.272;18.558;2022-11-15T09:14:22;100982.53;;;6.81;75.93
68807;BME280;55800;54.272;18.558;2022-11-15T09:17:12;100979.00;;;6.81;75.99
68807;BME280;55800;54.272;18.558;2022-11-15T09:19:59;100991.41;;;6.82;75.99
68807;BME280;55800;54.272;18.558;2022-11-15T09:22:48;100986.09;;;6.82;75.97
68807;BME280;55800;54.272;18.558;2022-11-15T09:25:36;100982.53;;;6.81;75.87
68807;BME280;55800;54.272;18.558;2022-11-15T09:28:24;100983.47;;;6.80;75.97
68807;BME280;55800;54.272;18.558;2022-11-15T09:31:13;100984.31;;;6.81;76.09
68807;BME280;55800;54.272;18.558;2022-11-15T09:34:08;100979.94;;;6.80;76.05
68807;BME280;55800;54.272;18.558;2022-11-15T09:36:56;100978.16;;;6.80;76.01
68807;BME280;55800;54.272;18.558;2022-11-15T09:39:44;100978.13;;;6.82;76.00
68807;BME280;55800;54.272;18.558;2022-11-15T09:42:52;100978.06;;;6.83;76.16
68807;BME280;55800;54.272;18.558;2022-11-15T09:45:54;100971.88;;;6.84;76.06
68807;BME280;55800;54.272;18.558;2022-11-15T09:48:52;100973.63;;;6.84;76.01
68807;BME280;55800;54.272;18.558;2022-11-15T09:51:27;100982.50;;;6.84;76.12
68807;BME280;55800;54.272;18.558;2022-11-15T09:54:07;100974.47;;;6.86;76.10
68807;BME280;55800;54.272;18.558;2022-11-15T09:57:11;100966.50;;;6.86;76.01
68807;BME280;55800;54.272;18.558;2022-11-15T09:59:52;100964.78;;;6.85;76.04
68807;BME280;55800;54.272;18.558;2022-11-15T10:02:51;100959.47;;;6.85;76.15
68807;BME280;55800;54.272;18.558;2022-11-15T10:05:23;100963.81;;;6.87;76.04
68807;BME280;55800;54.272;18.558;2022-11-15T10:08:00;100960.25;;;6.88;76.22
68807;BME280;55800;54.272;18.558;2022-11-15T10:10:35;100955.81;;;6.89;76.07
68807;BME280;55800;54.272;18.558;2022-11-15T10:13:09;100949.59;;;6.90;76.10
68807;BME280;55800;54.272;18.558;2022-11-15T10:15:44;100946.03;;;6.91;76.07
68807;BME280;55800;54.272;18.558;2022-11-15T10:18:17;100952.19;;;6.93;76.11
68807;BME280;55800;54.272;18.558;2022-11-15T10:20:50;100942.41;;;6.93;76.25
68807;BME280;55800;54.272;18.558;2022-11-15T10:23:22;100945.00;;;6.96;76.17
68807;BME280;55800;54.272;18.558;2022-11-15T10:25:53;100934.34;;;6.98;76.22
68807;BME280;55800;54.272;18.558;2022-11-15T10:28:28;100943.16;;;7.00;76.37
68807;BME280;55800;54.272;18.558;2022-11-15T10:31:00;100939.59;;;7.01;76.37
68807;BME280;55800;54.272;18.558;2022-11-15T10:33:34;100937.78;;;7.03;76.26
68807;BME280;55800;54.272;18.558;2022-11-15T10:36:20;100930.63;;;7.05;76.32
68807;BME280;55800;54.272;18.558;2022-11-15T10:39:10;100934.13;;;7.07;76.26
68807;BME280;55800;54.272;18.558;2022-11-15T10:41:41;100932.31;;;7.09;76.29
68807;BME280;55800;54.272;18.558;2022-11-15T10:44:23;100934.94;;;7.10;76.33
68807;BME280;55800;54.272;18.558;2022-11-15T10:47:21;100937.59;;;7.12;76.58
68807;BME280;55800;54.272;18.558;2022-11-15T10:49:57;100937.59;;;7.12;76.33
68807;BME280;55800;54.272;18.558;2022-11-15T10:52:27;100941.06;;;7.14;76.42
68807;BME280;55800;54.272;18.558;2022-11-15T10:55:03;100934.81;;;7.17;76.35
68807;BME280;55800;54.272;18.558;2022-11-15T10:57:38;100940.13;;;7.17;76.43
68807;BME280;55800;54.272;18.558;2022-11-15T11:00:27;100941.81;;;7.19;76.42
68807;BME280;55800;54.272;18.558;2022-11-15T11:02:59;100938.28;;;7.20;76.30
68807;BME280;55800;54.272;18.558;2022-11-15T11:05:31;100936.50;;;7.21;76.41
68807;BME280;55800;54.272;18.558;2022-11-15T11:08:22;100940.94;;;7.20;76.35
68807;BME280;55800;54.272;18.558;2022-11-15T11:10:58;100938.28;;;7.20;76.20
68807;BME280;55800;54.272;18.558;2022-11-15T11:13:32;100938.28;;;7.20;76.18
68807;BME280;55800;54.272;18.558;2022-11-15T11:16:41;100936.50;;;7.19;76.23
68807;BME280;55800;54.272;18.558;2022-11-15T11:19:26;100930.28;;;7.20;76.29
68807;BME280;55800;54.272;18.558;2022-11-15T11:22:03;100925.84;;;7.21;76.28
68807;BME280;55800;54.272;18.558;2022-11-15T11:24:39;100921.44;;;7.20;76.22
68807;BME280;55800;54.272;18.558;2022-11-15T11:27:22;100932.97;;;7.20;76.28
68807;BME280;55800;54.272;18.558;2022-11-15T11:30:03;100932.03;;;7.21;76.28
68807;BME280;55800;54.272;18.558;2022-11-15T11:35:32;100932.97;;;7.20;76.16
68807;BME280;55800;54.272;18.558;2022-11-15T11:38:17;100930.28;;;7.20;76.29
68807;BME280;55800;54.272;18.558;2022-11-15T11:40:59;100931.19;;;7.21;76.29
68807;BME280;55800;54.272;18.558;2022-11-15T11:43:51;100927.59;;;7.22;76.21
68807;BME280;55800;54.272;18.558;2022-11-15T11:46:43;100923.16;;;7.22;76.21
68807;BME280;55800;54.272;18.558;2022-11-15T11:49:19;100914.25;;;7.23;76.32
68807;BME280;55800;54.272;18.558;2022-11-15T11:51:54;100908.91;;;7.25;76.26
68807;BME280;55800;54.272;18.558;2022-11-15T11:54:31;100895.63;;;7.25;76.23
68807;BME280;55800;54.272;18.558;2022-11-15T11:57:07;100901.81;;;7.25;76.25
68807;BME280;55800;54.272;18.558;2022-11-15T11:59:47;100908.00;;;7.26;76.18
68807;BME280;55800;54.272;18.558;2022-11-15T12:02:26;100900.91;;;7.26;76.24
68807;BME280;55800;54.272;18.558;2022-11-15T12:05:04;100892.88;;;7.28;76.33
68807;BME280;55800;54.272;18.558;2022-11-15T12:07:38;100890.22;;;7.28;76.20
68807;BME280;55800;54.272;18.558;2022-11-15T12:10:17;100891.09;;;7.28;76.23
68807;BME280;55800;54.272;18.558;2022-11-15T12:12:53;100900.84;;;7.29;76.37
68807;BME280;55800;54.272;18.558;2022-11-15T12:15:28;100891.03;;;7.31;76.38
68807;BME280;55800;54.272;18.558;2022-11-15T12:18:01;100888.38;;;7.31;76.31
68807;BME280;55800;54.272;18.558;2022-11-15T12:20:33;100890.09;;;7.32;76.43
68807;BME280;55800;54.272;18.558;2022-11-15T12:23:07;100890.09;;;7.34;76.15
68807;BME280;55800;54.272;18.558;2022-11-15T12:25:44;100889.22;;;7.33;76.29
68807;BME280;55800;54.272;18.558;2022-11-15T12:28:19;100897.13;;;7.35;76.28
68807;BME280;55800;54.272;18.558;2022-11-15T12:30:56;100887.84;;;7.52;76.72
68807;BME280;55800;54.272;18.558;2022-11-15T12:33:37;100888.84;;;7.48;76.44
68807;BME280;55800;54.272;18.558;2022-11-15T12:36:11;100883.19;;;7.60;76.58
68807;BME280;55800;54.272;18.558;2022-11-15T12:38:53;100888.69;;;7.54;76.46
68807;BME280;55800;54.272;18.558;2022-11-15T12:41:24;100891.44;;;7.50;76.26
68807;BME280;55800;54.272;18.558;2022-11-15T12:43:55;100898.59;;;7.48;76.58
68807;BME280;55800;54.272;18.558;2022-11-15T12:47:00;100903.97;;;7.46;76.51
68807;BME280;55800;54.272;18.558;2022-11-15T12:49:46;100894.22;;;7.45;76.48
68807;BME280;55800;54.272;18.558;2022-11-15T12:52:16;100896.03;;;7.43;76.58
68807;BME280;55800;54.272;18.558;2022-11-15T12:55:06;100893.44;;;7.42;76.40
68807;BME280;55800;54.272;18.558;2022-11-15T12:57:52;100897.00;;;7.41;76.58
68807;BME280;55800;54.272;18.558;2022-11-15T13:00:43;100895.25;;;7.40;76.54
68807;BME280;55800;54.272;18.558;2022-11-15T13:03:25;100894.38;;;7.39;76.38
68807;BME280;55800;54.272;18.558;2022-11-15T13:08:49;100882.91;;;7.37;76.41
68807;BME280;55800;54.272;18.558;2022-11-15T13:11:42;100886.44;;;7.38;76.39
68807;BME280;55800;54.272;18.558;2022-11-15T13:14:40;100884.69;;;7.37;76.56
68807;BME280;55800;54.272;18.558;2022-11-15T13:17:31;100884.69;;;7.37;76.28
68807;BME280;55800;54.272;18.558;2022-11-15T13:20:20;100876.75;;;7.35;76.38
68807;BME280;55800;54.272;18.558;2022-11-15T13:22:59;100876.75;;;7.35;76.57
68807;BME280;55800;54.272;18.558;2022-11-15T13:25:57;100874.97;;;7.34;76.49
68807;BME280;55800;54.272;18.558;2022-11-15T13:28:33;100874.13;;;7.34;76.44
68807;BME280;55800;54.272;18.558;2022-11-15T13:31:25;100867.00;;;7.34;76.30
68807;BME280;55800;54.272;18.558;2022-11-15T13:33:58;100865.28;;;7.32;76.26
68807;BME280;55800;54.272;18.558;2022-11-15T13:36:32;100866.16;;;7.32;76.35
68807;BME280;55800;54.272;18.558;2022-11-15T13:39:05;100864.44;;;7.31;76.35
68807;BME280;55800;54.272;18.558;2022-11-15T13:41:36;100863.56;;;7.31;76.37
68807;BME280;55800;54.272;18.558;2022-11-15T13:44:20;100868.00;;;7.30;76.32
68807;BME280;55800;54.272;18.558;2022-11-15T13:47:01;100872.44;;;7.30;76.42
68807;BME280;55800;54.272;18.558;2022-11-15T13:49:33;100866.25;;;7.29;76.37
68807;BME280;55800;54.272;18.558;2022-11-15T13:52:06;100872.47;;;7.28;76.22
68807;BME280;55800;54.272;18.558;2022-11-15T13:54:40;100873.41;;;7.27;76.34
68807;BME280;55800;54.272;18.558;2022-11-15T13:57:14;100878.72;;;7.27;76.24
68807;BME280;55800;54.272;18.558;2022-11-15T13:59:47;100870.75;;;7.26;76.24
68807;BME280;55800;54.272;18.558;2022-11-15T14:02:18;100873.41;;;7.26;76.34
68807;BME280;55800;54.272;18.558;2022-11-15T14:04:51;100873.47;;;7.24;76.29
68807;BME280;55800;54.272;18.558;2022-11-15T14:07:24;100872.59;;;7.24;76.27
68807;BME280;55800;54.272;18.558;2022-11-15T14:09:56;100864.59;;;7.24;76.27
68807;BME280;55800;54.272;18.558;2022-11-15T14:12:31;100866.38;;;7.23;76.25
68807;BME280;55800;54.272;18.558;2022-11-15T14:17:47;100865.59;;;7.20;76.18
68807;BME280;55800;54.272;18.558;2022-11-15T14:20:27;100864.72;;;7.19;76.15
68807;BME280;55800;54.272;18.558;2022-11-15T14:23:01;100864.75;;;7.18;76.18
68807;BME280;55800;54.272;18.558;2022-11-15T14:25:31;100860.38;;;7.17;76.23
68807;BME280;55800;54.272;18.558;2022-11-15T14:28:27;100858.59;;;7.16;76.14
68807;BME280;55800;54.272;18.558;2022-11-15T14:30:59;100858.59;;;7.16;76.10
68807;BME280;55800;54.272;18.558;2022-11-15T14:33:31;100851.56;;;7.13;76.23
68807;BME280;55800;54.272;18.558;2022-11-15T14:36:04;100856.00;;;7.13;76.17
68807;BME280;55800;54.272;18.558;2022-11-15T14:38:35;100848.97;;;7.12;76.18
68807;BME280;55800;54.272;18.558;2022-11-15T14:41:05;100852.50;;;7.10;76.11
68807;BME280;55800;54.272;18.558;2022-11-15T14:43:34;100847.25;;;7.09;76.03